Time;durP1;ratioP1;P1;durP2;ratioP2;P2;SDS_P1;SDS_P2;PMS_P1;PMS_P2;Temp;Humidity;BMP_temperature;BMP_pressure;BME280_temperature;BME280_humidity;BME280_pressure;Samples;Min_cycle;Max_cycle;Signal;HPM_P1;HPM_P2
2022/01/12 00:01:02;;;;;;;5.82;5.00;;;;;;;-143.84;78.34;45302.34;5013758;28;20649;-74
2022/01/12 00:03:30;;;;;;;6.57;4.03;;;;;;;-143.84;77.66;45290.91;5013530;28;20204;-75
2022/01/12 00:05:57;;;;;;;6.40;3.97;;;;;;;-143.84;77.86;45292.81;5013529;28;20253;-74
2022/01/12 00:08:25;;;;;;;5.28;4.78;;;;;;;-143.84;77.61;45273.78;5013427;28;20651;-74
2022/01/12 00:10:52;;;;;;;5.35;4.80;;;;;;;-143.84;76.58;45289.00;5013511;28;20216;-74
2022/01/12 00:13:19;;;;;;;5.10;4.60;;;;;;;-143.84;76.17;45319.47;5013332;28;20232;-74
2022/01/12 00:15:48;;;;;;;5.72;4.28;;;;;;;-143.84;75.70;45298.53;5013145;28;20687;-74
2022/01/12 00:18:15;;;;;;;3.03;2.83;;;;;;;-143.84;75.78;45319.47;5013369;28;20642;-74
2022/01/12 00:20:43;;;;;;;4.10;3.80;;;;;;;-143.84;76.33;45277.56;5013021;28;20266;-74
2022/01/12 00:23:10;;;;;;;4.70;4.28;;;;;;;-143.84;75.90;45323.28;5013080;28;20231;-74
2022/01/12 00:25:57;;;;;;;4.93;3.80;;;;;;;-143.84;75.73;45302.34;5012813;28;20251;-75
2022/01/12 00:33:56;;;;;;;3.15;2.90;;;;;;;-143.84;75.76;45321.38;5013560;28;20572;-74
2022/01/12 00:36:23;;;;;;;5.45;3.55;;;;;;;-143.84;75.90;45311.84;5012990;28;20208;-74
2022/01/12 00:38:50;;;;;;;25.73;4.05;;;;;;;-143.84;76.30;45266.16;5012858;28;20630;-74
2022/01/12 00:41:19;;;;;;;4.15;3.13;;;;;;;-143.84;77.00;45273.78;5013290;28;20204;-75
2022/01/12 00:43:55;;;;;;;4.20;3.80;;;;;;;-143.84;76.60;45281.38;5012004;28;20956;-74
2022/01/12 00:46:25;;;;;;;4.97;3.80;;;;;;;-143.84;76.86;45308.03;5012786;28;20234;-74
2022/01/12 00:48:54;;;;;;;3.80;3.40;;;;;;;-143.84;76.63;45300.44;5011240;28;20267;-74
2022/01/12 00:51:22;;;;;;;4.45;4.05;;;;;;;-143.84;75.78;45317.56;5011848;28;20262;-75
2022/01/12 00:53:50;;;;;;;5.20;3.85;;;;;;;-143.84;75.84;45292.81;5010633;28;20240;-74
2022/01/12 00:56:17;;;;;;;5.50;4.60;;;;;;;-143.84;75.71;45298.53;5009945;28;20196;-75
2022/01/12 00:58:44;;;;;;;5.45;3.60;;;;;;;-143.84;76.25;45319.47;5011119;28;20205;-74
2022/01/12 01:01:11;;;;;;;5.13;3.22;;;;;;;-143.84;75.53;45275.66;5010557;28;20212;-75
2022/01/12 01:03:39;;;;;;;5.18;3.63;;;;;;;-143.84;75.55;45317.56;5011185;28;20950;-74
2022/01/12 01:06:09;;;;;;;3.53;3.10;;;;;;;-143.84;75.89;45296.63;5012007;28;20236;-74
2022/01/12 01:08:36;;;;;;;4.70;4.20;;;;;;;-143.84;75.81;45289.00;5011434;28;20204;-75
2022/01/12 01:11:04;;;;;;;7.07;3.88;;;;;;;-143.84;75.46;45290.91;5011668;28;20263;-74
2022/01/12 01:13:35;;;;;;;5.05;3.88;;;;;;;-143.84;74.72;45294.72;5012122;28;20228;-75
2022/01/12 01:16:18;;;;;;;3.95;3.55;;;;;;;-143.84;74.30;45308.03;5011554;28;20216;-75
2022/01/12 01:27:00;;;;;;;7.30;3.92;;;;;;;-143.84;74.24;45287.09;5011130;28;20211;-75
2022/01/12 01:29:28;;;;;;;4.93;4.53;;;;;;;-143.84;74.72;45296.63;5010307;28;20556;-75
2022/01/12 01:31:55;;;;;;;4.57;4.18;;;;;;;-143.84;74.65;45317.56;5011493;28;20201;-75
2022/01/12 01:34:26;;;;;;;6.88;4.53;;;;;;;-143.84;75.14;45289.00;5011678;28;20233;-75
2022/01/12 01:36:55;;;;;;;6.95;4.95;;;;;;;-143.84;74.95;45275.66;5011635;28;20239;-75
2022/01/12 01:39:25;;;;;;;6.57;4.10;;;;;;;-143.84;74.98;45294.72;5011577;28;20585;-75
2022/01/12 01:41:57;;;;;;;7.28;4.30;;;;;;;-143.84;74.39;45268.06;5011328;28;20200;-75
2022/01/12 01:55:27;;;;;;;5.57;4.63;;;;;;;-143.84;75.24;45296.63;5011038;28;20200;-75
2022/01/12 01:57:54;;;;;;;5.20;4.43;;;;;;;-143.84;75.60;45298.53;5011322;28;20201;-75
2022/01/12 02:00:24;;;;;;;6.93;4.95;;;;;;;-143.84;75.63;45323.28;5011306;28;20258;-75
2022/01/12 02:02:53;;;;;;;5.10;4.50;;;;;;;-143.84;76.21;45285.19;5011170;28;20404;-74
2022/01/12 02:05:21;;;;;;;4.88;4.38;;;;;;;-143.84;75.41;45315.66;5010771;28;20242;-75
2022/01/12 02:07:49;;;;;;;16.67;4.47;;;;;;;-143.84;75.15;45292.81;5011073;28;20201;-75
2022/01/12 02:10:16;;;;;;;6.00;4.15;;;;;;;-143.84;75.41;45315.66;5011012;28;20204;-75
2022/01/12 02:12:43;;;;;;;6.53;4.80;;;;;;;-143.84;75.55;45296.63;5010655;28;20208;-75
2022/01/12 02:15:17;;;;;;;8.93;5.07;;;;;;;-143.84;75.67;45281.38;5009733;28;20205;-75
2022/01/12 02:18:01;;;;;;;6.72;4.65;;;;;;;-143.84;76.59;45296.63;5010678;28;20201;-75
2022/01/12 02:37:17;;;;;;;5.78;4.57;;;;;;;-143.84;75.63;45289.00;5010652;28;20199;-75
2022/01/12 02:39:54;;;;;;;4.90;4.53;;;;;;;-143.84;75.73;45279.47;5010419;28;20688;-74
2022/01/12 02:42:23;;;;;;;7.10;5.28;;;;;;;-143.84;76.06;45287.09;5009501;28;20208;-74
2022/01/12 02:50:44;;;;;;;4.82;4.30;;;;;;;-143.84;74.75;45317.56;5010130;28;20275;-75
2022/01/12 02:55:57;;;;;;;3.92;3.60;;;;;;;-143.84;74.44;45283.28;5010099;28;20199;-75
2022/01/12 02:58:25;;;;;;;5.20;4.60;;;;;;;-143.84;74.23;45296.63;5010120;28;20209;-75
2022/01/12 03:03:41;;;;;;;5.05;4.45;;;;;;;-143.84;74.83;45309.94;5007534;28;20212;-74
2022/01/12 03:06:09;;;;;;;5.15;4.63;;;;;;;-143.84;74.52;45292.81;5009803;28;20236;-75
2022/01/12 03:08:37;;;;;;;11.18;4.68;;;;;;;-143.84;75.05;45332.81;5013345;28;20197;-74
2022/01/12 03:11:07;;;;;;;5.30;4.20;;;;;;;-143.84;74.92;45304.25;5013755;28;20211;-74
2022/01/12 03:13:35;;;;;;;6.30;4.82;;;;;;;-143.84;74.81;45264.25;5014014;28;20232;-74
2022/01/12 03:16:10;;;;;;;4.97;4.55;;;;;;;-143.84;74.38;45300.44;5013680;28;20231;-75
2022/01/12 03:18:37;;;;;;;4.00;3.70;;;;;;;-143.84;72.88;45323.28;5013682;28;20204;-74
2022/01/12 03:21:05;;;;;;;7.22;4.93;;;;;;;-143.84;71.58;45308.03;5013980;28;20201;-74
2022/01/12 03:23:32;;;;;;;3.47;3.17;;;;;;;-143.84;69.29;45302.34;5013428;28;20674;-75
2022/01/12 03:25:59;;;;;;;5.13;3.10;;;;;;;-143.84;68.54;45285.19;5013776;28;20213;-74
2022/01/12 03:28:28;;;;;;;3.42;2.97;;;;;;;-143.84;69.13;45304.25;5012984;28;20197;-75
2022/01/12 03:31:03;;;;;;;4.45;3.67;;;;;;;-143.84;69.06;45306.13;5013582;28;20224;-75
2022/01/12 04:09:17;;;;;;;3.25;2.95;;;;;;;-143.84;66.98;45334.72;5013561;28;20211;-75
2022/01/12 04:11:44;;;;;;;5.10;3.05;;;;;;;-143.84;66.11;45296.63;5013861;28;20627;-74
2022/01/12 04:14:12;;;;;;;5.05;3.58;;;;;;;-143.84;66.99;45296.63;5013370;28;20229;-75
2022/01/12 04:16:40;;;;;;;5.18;3.55;;;;;;;-143.84;66.31;45315.66;5013419;28;20618;-75
2022/01/12 04:19:08;;;;;;;6.07;3.50;;;;;;;-143.84;66.90;45323.28;5013015;28;20697;-75
2022/01/12 04:21:42;;;;;;;5.30;4.10;;;;;;;-143.84;67.15;45292.81;5012987;28;20200;-75
2022/01/12 04:24:10;;;;;;;6.03;3.58;;;;;;;-143.84;66.82;45298.53;5013302;28;20212;-75
2022/01/12 04:26:38;;;;;;;3.13;2.83;;;;;;;-143.84;66.75;45298.53;5013055;28;20205;-75
2022/01/12 04:29:06;;;;;;;3.47;3.15;;;;;;;-143.84;66.90;45315.66;5013225;28;20209;-75
2022/01/12 04:31:34;;;;;;;4.63;3.53;;;;;;;-143.84;67.13;45300.44;5000856;28;20205;-75
2022/01/12 04:34:01;;;;;;;5.35;4.13;;;;;;;-143.84;67.50;45300.44;4992456;28;20233;-75
2022/01/12 04:36:28;;;;;;;7.55;3.80;;;;;;;-143.84;67.12;45309.94;4995933;28;20637;-74
2022/01/12 04:38:57;;;;;;;4.95;3.47;;;;;;;-143.84;67.43;45294.72;4993274;28;20212;-75
2022/01/12 04:41:24;;;;;;;3.25;2.95;;;;;;;-143.84;67.51;45290.91;4992096;28;20197;-75
2022/01/12 04:43:53;;;;;;;7.47;3.67;;;;;;;-143.84;68.11;45315.66;4992187;28;20603;-75
2022/01/12 04:46:31;;;;;;;4.47;3.25;;;;;;;-143.84;68.40;45311.84;4993333;28;20583;-75
2022/01/12 04:49:20;;;;;;;6.32;3.13;;;;;;;-143.84;69.13;45289.00;4992882;28;20579;-75
2022/01/12 04:51:47;;;;;;;4.20;3.05;;;;;;;-143.84;69.10;45294.72;4992961;28;20686;-75
2022/01/12 04:54:16;;;;;;;4.93;3.95;;;;;;;-143.84;69.35;45306.13;4993172;28;20629;-75
2022/01/12 04:56:43;;;;;;;7.07;3.75;;;;;;;-143.84;69.09;45330.91;4984182;28;20202;-75
2022/01/12 04:59:10;;;;;;;5.72;3.90;;;;;;;-143.84;69.35;45302.34;4970952;28;20671;-75
2022/01/12 05:01:49;;;;;;;4.18;3.75;;;;;;;-143.84;69.20;45294.72;4970718;28;20206;-75
2022/01/12 05:07:27;;;;;;;8.80;5.32;;;;;;;-143.84;69.77;45327.09;4973275;28;20322;-76
2022/01/12 05:15:30;;;;;;;4.45;3.72;;;;;;;-143.84;69.87;45273.78;4967785;28;21058;-74
2022/01/12 05:17:58;;;;;;;7.15;4.43;;;;;;;-143.84;70.14;45279.47;4973414;28;20653;-75
2022/01/12 05:20:25;;;;;;;6.85;4.20;;;;;;;-143.84;69.80;45285.19;4973564;28;20213;-75
2022/01/12 05:22:52;;;;;;;6.53;3.88;;;;;;;-143.84;70.34;45323.28;4974179;28;20198;-74
2022/01/12 05:25:22;;;;;;;11.55;4.72;;;;;;;-143.84;71.02;45298.53;4973784;28;21044;-74
2022/01/12 05:27:50;;;;;;;8.52;5.60;;;;;;;-143.84;72.04;45283.28;4973049;28;20420;-75
2022/01/12 05:30:17;;;;;;;7.80;6.00;;;;;;;-143.84;71.91;45287.09;4972667;28;20198;-75
2022/01/12 05:32:46;;;;;;;7.70;5.53;;;;;;;-143.84;71.59;45308.03;4973960;28;20202;-73
2022/01/12 05:35:15;;;;;;;7.00;5.20;;;;;;;-143.84;71.40;45281.38;4973511;28;20230;-75
2022/01/12 05:37:44;;;;;;;5.40;4.60;;;;;;;-143.84;71.65;45300.44;4974710;28;20293;-74
2022/01/12 05:40:12;;;;;;;5.35;4.65;;;;;;;-143.84;71.55;45289.00;4997837;28;20550;-74
2022/01/12 05:42:40;;;;;;;11.60;5.30;;;;;;;-143.84;71.53;45294.72;5005675;28;20196;-75
2022/01/12 05:45:09;;;;;;;7.35;5.20;;;;;;;-143.84;71.96;45296.63;4998458;28;20193;-75
2022/01/12 05:50:23;;;;;;;6.60;5.03;;;;;;;-143.84;72.38;45277.56;4990077;28;20194;-74
2022/01/12 05:52:50;;;;;;;5.82;4.30;;;;;;;-143.84;73.06;45313.75;5002725;28;20271;-74
2022/01/12 05:55:18;;;;;;;7.55;5.35;;;;;;;-143.84;73.23;45275.66;4997471;28;20217;-74
2022/01/12 05:57:47;;;;;;;6.70;4.85;;;;;;;-143.84;73.42;45317.56;4994946;28;20198;-75
2022/01/12 06:00:18;;;;;;;6.25;4.70;;;;;;;-143.84;73.41;45323.28;4997825;28;20232;-75
2022/01/12 06:02:45;;;;;;;9.52;5.57;;;;;;;-143.84;73.50;45313.75;5005740;28;20188;-75
2022/01/12 06:05:14;;;;;;;6.90;5.55;;;;;;;-143.84;73.59;45273.78;5005264;28;20234;-74
2022/01/12 06:07:42;;;;;;;11.93;6.03;;;;;;;-143.84;73.67;45323.28;4995110;28;20658;-68
2022/01/12 06:10:10;;;;;;;11.50;6.72;;;;;;;-143.84;73.27;45311.84;4990243;28;20452;-70
2022/01/12 06:12:37;;;;;;;10.32;6.18;;;;;;;-143.84;73.27;45292.81;4989621;28;20672;-70
2022/01/12 06:15:07;;;;;;;7.10;5.45;;;;;;;-143.84;73.08;45273.78;4989286;28;20723;-69
2022/01/12 06:17:34;;;;;;;8.88;5.40;;;;;;;-143.84;73.36;45273.78;4990228;28;20205;-69
2022/01/12 06:20:02;;;;;;;11.27;5.10;;;;;;;-143.84;73.11;45268.06;4972681;28;20209;-69
2022/01/12 06:22:29;;;;;;;9.02;5.63;;;;;;;-143.84;73.76;45306.13;5008076;28;20899;-69
2022/01/12 06:24:58;;;;;;;16.83;6.70;;;;;;;-143.84;73.26;45252.81;5005244;28;20223;-69
2022/01/12 06:27:28;;;;;;;12.60;5.43;;;;;;;-143.84;73.59;45304.25;5008187;28;20291;-69
2022/01/12 06:30:05;;;;;;;16.45;7.80;;;;;;;-143.84;73.94;45289.00;5008307;28;20259;-69
2022/01/12 06:32:34;;;;;;;9.43;6.38;;;;;;;-143.84;74.55;45302.34;5008584;28;20236;-69
2022/01/12 06:35:01;;;;;;;6.85;4.85;;;;;;;-143.84;73.99;45315.66;5008627;28;20361;-69
2022/01/12 06:37:28;;;;;;;9.98;6.38;;;;;;;-143.84;74.17;45300.44;5008818;28;20189;-69
2022/01/12 06:39:55;;;;;;;8.80;5.43;;;;;;;-143.84;73.87;45325.19;5009085;28;20215;-69
2022/01/12 06:42:23;;;;;;;7.03;5.20;;;;;;;-143.84;73.61;45315.66;5009057;28;20266;-69
2022/01/12 06:44:50;;;;;;;6.60;4.97;;;;;;;-143.84;71.99;45309.94;5008502;28;20450;-69
2022/01/12 06:47:19;;;;;;;7.15;4.90;;;;;;;-143.84;71.40;45279.47;5008453;28;20444;-69
2022/01/12 06:49:48;;;;;;;7.30;4.82;;;;;;;-143.84;70.64;45264.25;5008481;28;20212;-69
2022/01/12 06:52:15;;;;;;;4.85;3.55;;;;;;;-143.84;69.77;45289.00;5008866;28;20238;-69
2022/01/12 06:54:42;;;;;;;6.82;5.22;;;;;;;-143.84;70.00;45306.13;5008935;28;20287;-69
2022/01/12 06:57:09;;;;;;;7.05;4.38;;;;;;;-143.84;69.98;45289.00;5008799;28;20278;-69
2022/01/12 06:59:37;;;;;;;5.32;4.63;;;;;;;-143.84;70.04;45290.91;4991698;28;20201;-69
2022/01/12 07:02:05;;;;;;;9.60;5.72;;;;;;;-143.84;69.19;45296.63;5008951;28;20328;-69
2022/01/12 07:04:32;;;;;;;9.48;5.55;;;;;;;-143.84;69.26;45334.72;5008770;28;20287;-70
2022/01/12 07:07:01;;;;;;;7.88;5.82;;;;;;;-143.84;69.43;45298.53;5008760;28;20200;-69
2022/01/12 07:09:28;;;;;;;7.85;5.80;;;;;;;-143.84;69.00;45279.47;5008068;28;20208;-69
2022/01/12 07:11:55;;;;;;;9.02;6.07;;;;;;;-143.84;69.58;45317.56;5008534;28;20266;-69
2022/01/12 07:14:22;;;;;;;11.95;6.97;;;;;;;-143.84;70.03;45277.56;5008717;28;20832;-69
2022/01/12 07:16:49;;;;;;;10.43;5.88;;;;;;;-143.84;70.03;45290.91;5009022;28;20224;-69
2022/01/12 07:19:17;;;;;;;8.38;6.10;;;;;;;-143.84;70.34;45275.66;5008963;28;20585;-69
2022/01/12 07:21:44;;;;;;;10.43;6.50;;;;;;;-143.84;71.51;45296.63;5008760;28;20204;-69
2022/01/12 07:24:12;;;;;;;9.68;6.13;;;;;;;-143.84;71.83;45290.91;5008864;28;20283;-69
2022/01/12 07:26:39;;;;;;;6.75;5.32;;;;;;;-143.84;71.62;45273.78;5008565;28;20205;-69
2022/01/12 07:29:09;;;;;;;7.28;5.60;;;;;;;-143.84;71.31;45285.19;5008618;28;20936;-69
2022/01/12 07:31:36;;;;;;;15.85;6.35;;;;;;;-143.84;71.40;45319.47;5008471;28;20207;-69
2022/01/12 07:34:03;;;;;;;9.40;5.72;;;;;;;-143.84;72.08;45317.56;5008799;28;20209;-69
2022/01/12 07:36:30;;;;;;;11.80;6.80;;;;;;;-143.84;72.25;45321.38;5008633;28;20314;-69
2022/01/12 07:38:59;;;;;;;7.28;5.38;;;;;;;-143.84;72.75;45321.38;5008476;28;20207;-69
2022/01/12 07:41:27;;;;;;;7.03;5.57;;;;;;;-143.84;72.82;45309.94;5008573;28;20201;-69
2022/01/12 07:43:54;;;;;;;12.02;6.45;;;;;;;-143.84;72.75;45294.72;5008459;28;20201;-69
2022/01/12 07:46:22;;;;;;;22.52;7.45;;;;;;;-143.84;72.62;45290.91;5008537;28;20216;-69
2022/01/12 07:48:49;;;;;;;14.15;7.22;;;;;;;-143.84;71.19;45292.81;5008499;28;20205;-69
2022/01/12 07:51:16;;;;;;;6.95;5.35;;;;;;;-143.84;69.26;45308.03;5008742;28;20215;-69
2022/01/12 07:53:43;;;;;;;16.42;7.30;;;;;;;-143.84;68.80;45296.63;5009837;28;20255;-69
2022/01/12 07:56:11;;;;;;;9.68;6.78;;;;;;;-143.84;68.66;45313.75;5011840;28;20232;-69
2022/01/12 07:58:39;;;;;;;10.65;7.35;;;;;;;-143.84;67.54;45296.63;5011884;28;20201;-69
2022/01/12 08:01:07;;;;;;;9.63;6.57;;;;;;;-143.84;67.34;45315.66;5011887;28;20209;-69
2022/01/12 08:03:35;;;;;;;9.80;6.65;;;;;;;-143.84;67.15;45317.56;5011962;28;20204;-69
2022/01/12 08:06:02;;;;;;;8.95;5.70;;;;;;;-143.84;67.04;45315.66;5011918;28;20259;-69
2022/01/12 08:08:29;;;;;;;12.23;6.07;;;;;;;-143.84;67.37;45311.84;5012008;28;20588;-69
2022/01/12 08:10:56;;;;;;;11.65;6.35;;;;;;;-143.84;67.63;45285.19;5011680;28;20208;-69
2022/01/12 08:13:23;;;;;;;10.23;7.22;;;;;;;-143.84;68.09;45287.09;5011966;28;20209;-69
2022/01/12 08:15:52;;;;;;;9.25;6.45;;;;;;;-143.84;67.32;45327.09;5011710;28;20590;-69
2022/01/12 08:18:19;;;;;;;8.52;5.90;;;;;;;-143.84;66.98;45317.56;5011911;28;20259;-69
2022/01/12 08:20:46;;;;;;;10.23;6.90;;;;;;;-143.84;67.59;45268.06;5011328;28;20204;-69
2022/01/12 08:23:13;;;;;;;8.05;6.45;;;;;;;-143.84;67.21;45302.34;5011322;28;20760;-69
2022/01/12 08:25:40;;;;;;;10.77;6.30;;;;;;;-143.84;67.03;45290.91;5011321;28;20215;-69
2022/01/12 08:28:08;;;;;;;10.38;5.93;;;;;;;-143.84;66.39;45317.56;5011355;28;20207;-69
2022/01/12 08:30:36;;;;;;;9.68;5.43;;;;;;;-143.84;66.27;45258.53;5011536;28;20215;-69
2022/01/12 08:33:06;;;;;;;14.65;6.32;;;;;;;-143.84;65.85;45292.81;5011448;28;20216;-69
2022/01/12 08:35:33;;;;;;;13.15;6.40;;;;;;;-143.84;65.30;45296.63;5011145;28;20232;-69
2022/01/12 08:38:01;;;;;;;13.10;6.90;;;;;;;-143.84;64.75;45308.03;5011271;28;20205;-69
2022/01/12 08:40:29;;;;;;;9.75;6.72;;;;;;;-143.84;64.76;45260.44;5011202;28;20215;-69
2022/01/12 08:42:57;;;;;;;12.85;7.20;;;;;;;-143.84;63.44;45300.44;5011238;28;20679;-69
2022/01/12 08:45:24;;;;;;;9.65;6.60;;;;;;;-143.84;63.14;45317.56;5011037;28;20220;-69
2022/01/12 08:47:52;;;;;;;11.43;7.13;;;;;;;-143.84;62.20;45289.00;5011053;28;20737;-69
2022/01/12 08:50:20;;;;;;;7.13;4.97;;;;;;;-143.84;60.37;45313.75;5010885;28;20211;-69
2022/01/12 08:52:49;;;;;;;8.37;5.83;;;;;;;-143.84;60.74;45311.84;5010845;28;20663;-69
2022/01/12 08:55:18;;;;;;;10.20;7.15;;;;;;;-143.84;59.50;45306.13;5010847;28;20490;-69
2022/01/12 08:57:46;;;;;;;22.03;9.03;;;;;;;-143.84;58.60;45273.78;5010911;28;20212;-69
2022/01/12 09:00:14;;;;;;;9.90;7.60;;;;;;;-143.84;58.21;45245.19;5010792;28;20451;-69
2022/01/12 09:02:42;;;;;;;11.93;7.33;;;;;;;-143.84;56.37;45266.16;5009750;28;20446;-69
2022/01/12 09:05:11;;;;;;;10.20;6.17;;;;;;;-143.84;55.35;45283.28;5008568;28;20483;-69
2022/01/12 09:07:40;;;;;;;8.70;5.63;;;;;;;-143.84;56.24;45264.25;5010144;28;20500;-69
2022/01/12 09:10:08;;;;;;;12.90;6.03;;;;;;;-143.84;57.19;45262.34;5010195;28;20443;-69
2022/01/12 09:12:36;;;;;;;14.17;7.70;;;;;;;-143.84;56.25;45268.06;5010203;28;20456;-69
2022/01/12 09:15:04;;;;;;;13.43;6.73;;;;;;;-143.84;55.54;45285.19;5010389;28;20485;-69
2022/01/12 09:17:31;;;;;;;13.97;6.23;;;;;;;-143.84;52.71;45249.00;5010356;28;20439;-69
2022/01/12 09:19:59;;;;;;;6.57;5.60;;;;;;;-143.84;51.27;45275.66;5010589;28;20535;-69
2022/01/12 09:22:26;;;;;;;9.57;5.43;;;;;;;-143.84;50.19;45264.25;5010285;28;20830;-69
2022/01/12 09:24:55;;;;;;;7.77;5.40;;;;;;;-143.84;48.94;45273.78;5010287;28;20491;-69
2022/01/12 09:27:22;;;;;;;9.30;5.87;;;;;;;-143.84;48.14;45252.81;5010399;28;20510;-69
2022/01/12 09:29:49;;;;;;;6.20;4.23;;;;;;;-143.84;45.44;45254.72;5010327;28;20773;-69
2022/01/12 09:32:17;;;;;;;9.70;5.47;;;;;;;-143.84;46.60;45281.38;5010272;28;20452;-68
2022/01/12 09:34:44;;;;;;;8.97;6.20;;;;;;;-143.84;46.58;45296.63;5009725;28;20440;-68
2022/01/12 09:37:11;;;;;;;6.43;4.33;;;;;;;-143.84;46.24;45271.88;5009801;28;20451;-69
2022/01/12 09:39:39;;;;;;;5.37;4.57;;;;;;;-143.84;46.45;45258.53;5009974;28;20443;-69
2022/01/12 09:42:08;;;;;;;6.27;4.60;;;;;;;-143.84;46.59;45258.53;5009996;28;20439;-69
2022/01/12 09:44:38;;;;;;;8.23;5.83;;;;;;;-143.84;45.92;45264.25;5009903;28;20454;-69
2022/01/12 09:47:07;;;;;;;8.80;5.53;;;;;;;-143.84;47.02;45256.63;5010023;28;20456;-69
2022/01/12 09:49:35;;;;;;;6.80;5.57;;;;;;;-143.84;47.17;45258.53;5009947;28;20447;-69
2022/01/12 09:52:03;;;;;;;10.80;5.90;;;;;;;-143.84;47.32;45237.59;5009694;28;20447;-69
2022/01/12 09:54:30;;;;;;;7.77;5.00;;;;;;;-143.84;47.20;45241.41;5009751;28;20443;-69
2022/01/12 09:56:58;;;;;;;12.50;5.83;;;;;;;-143.84;45.64;45262.34;5009705;28;20534;-69
2022/01/12 09:59:27;;;;;;;11.73;5.87;;;;;;;-143.84;44.87;45243.31;5009717;28;20446;-69
2022/01/12 10:01:55;;;;;;;4.90;4.30;;;;;;;-143.84;44.92;45245.19;5009809;28;20448;-69
2022/01/12 10:04:24;;;;;;;8.83;5.37;;;;;;;-143.84;45.30;45239.50;5009853;28;20455;-69
2022/01/12 10:06:53;;;;;;;6.20;4.83;;;;;;;-143.84;45.47;45254.72;5009203;28;20483;-69
2022/01/12 10:09:26;;;;;;;10.50;5.97;;;;;;;-143.84;45.69;45250.91;5009434;28;20446;-69
2022/01/12 10:11:54;;;;;;;6.57;5.07;;;;;;;-143.84;46.60;45264.25;5009474;28;20474;-69
2022/01/12 10:14:22;;;;;;;18.67;5.13;;;;;;;-143.84;47.83;45256.63;5009294;28;20444;-69
2022/01/12 10:16:57;;;;;;;10.13;5.43;;;;;;;-143.84;48.08;45250.91;5008644;28;20491;-69
2022/01/12 10:19:29;;;;;;;8.30;5.00;;;;;;;-143.84;47.84;45235.69;5009590;28;20521;-69
2022/01/12 10:21:57;;;;;;;13.47;5.93;;;;;;;-143.84;46.86;45258.53;5009487;28;20439;-69
2022/01/12 10:24:25;;;;;;;13.80;6.23;;;;;;;-143.84;46.29;45258.53;5009247;28;20451;-69
2022/01/12 10:26:53;;;;;;;12.90;5.50;;;;;;;-143.84;46.78;45249.00;5009451;28;20439;-69
2022/01/12 10:29:23;;;;;;;13.20;6.60;;;;;;;-143.84;47.91;45285.19;5009477;28;20435;-69
2022/01/12 10:31:55;;;;;;;11.00;7.00;;;;;;;-143.84;47.76;45254.72;5009345;28;20443;-69
2022/01/12 10:34:24;;;;;;;11.93;7.00;;;;;;;-143.84;47.53;45258.53;5009080;28;20447;-69
2022/01/12 10:36:53;;;;;;;4.57;3.83;;;;;;;-143.84;47.74;45260.44;5009175;28;20976;-69
2022/01/12 10:39:22;;;;;;;6.97;4.70;;;;;;;-143.84;46.72;45289.00;5009529;28;20945;-69
2022/01/12 10:42:02;;;;;;;7.30;5.23;;;;;;;-143.84;47.14;45262.34;5009319;28;20471;-69
2022/01/12 10:44:32;;;;;;;5.77;4.83;;;;;;;-143.84;46.10;45268.06;5009259;28;20448;-69
2022/01/12 10:47:12;;;;;;;8.43;4.50;;;;;;;-143.84;46.19;45252.81;5008933;28;20818;-69
2022/01/12 10:49:42;;;;;;;6.27;4.90;;;;;;;-143.84;45.15;45239.50;5008253;28;20451;-69
2022/01/12 10:52:11;;;;;;;5.80;4.80;;;;;;;-143.84;45.26;45262.34;5008874;28;20502;-69
2022/01/12 10:54:47;;;;;;;13.63;4.97;;;;;;;-143.84;46.33;45268.06;5009043;28;20446;-69
2022/01/12 10:57:16;;;;;;;11.60;5.80;;;;;;;-143.84;46.46;45243.31;5009025;28;20489;-69
2022/01/12 10:59:43;;;;;;;5.97;4.87;;;;;;;-143.84;45.84;45254.72;5008895;28;20443;-69
2022/01/12 11:02:12;;;;;;;10.50;4.60;;;;;;;-143.84;46.18;45241.41;5008841;28;20448;-69
2022/01/12 11:04:41;;;;;;;4.83;4.00;;;;;;;-143.84;45.67;45241.41;5008741;28;20455;-69
2022/01/12 11:07:08;;;;;;;9.53;5.60;;;;;;;-143.84;45.37;45260.44;5009069;28;20474;-69
2022/01/12 11:09:37;;;;;;;16.00;5.33;;;;;;;-143.84;46.23;45250.91;5009034;28;20435;-69
2022/01/12 11:12:05;;;;;;;8.40;3.73;;;;;;;-143.84;45.09;45233.78;5008882;28;20899;-69
2022/01/12 11:14:32;;;;;;;4.90;3.87;;;;;;;-143.84;44.98;45256.63;5009073;28;20432;-69
2022/01/12 11:17:00;;;;;;;5.53;3.93;;;;;;;-143.84;46.10;45266.16;5008580;28;20471;-69
2022/01/12 11:19:29;;;;;;;6.47;4.13;;;;;;;-143.84;46.48;45250.91;5008753;28;20803;-69
2022/01/12 11:22:07;;;;;;;6.90;4.93;;;;;;;-143.84;46.68;45275.66;5008676;28;20440;-69
2022/01/12 11:24:34;;;;;;;9.10;4.67;;;;;;;-143.84;46.56;45269.97;5008614;28;20445;-69
2022/01/12 11:27:04;;;;;;;4.57;4.17;;;;;;;-143.84;46.77;45268.06;5008905;28;20447;-69
2022/01/12 11:29:34;;;;;;;11.50;4.43;;;;;;;-143.84;47.05;45256.63;5011364;28;20451;-69
2022/01/12 11:32:13;;;;;;;6.43;4.43;;;;;;;-143.84;47.17;45249.00;5012413;28;20443;-69
2022/01/12 11:34:41;;;;;;;7.67;4.70;;;;;;;-143.84;47.91;45258.53;5012572;28;21296;-69
2022/01/12 11:37:14;;;;;;;5.70;4.53;;;;;;;-143.84;47.32;45249.00;5012105;28;20478;-69
2022/01/12 11:39:41;;;;;;;11.03;5.00;;;;;;;-143.84;47.33;45235.69;5012273;28;20457;-69
2022/01/12 11:42:09;;;;;;;4.03;3.50;;;;;;;-143.84;46.80;45269.97;5012430;28;20450;-69
2022/01/12 11:44:38;;;;;;;8.03;5.13;;;;;;;-143.84;48.06;45250.91;5012453;28;20443;-69
2022/01/12 11:47:12;;;;;;;11.97;5.07;;;;;;;-143.84;49.24;45264.25;5012222;28;20444;-69
2022/01/12 11:49:44;;;;;;;9.70;5.50;;;;;;;-143.84;48.96;45250.91;5012214;28;20450;-69
2022/01/12 11:52:16;;;;;;;15.83;5.67;;;;;;;-143.84;49.82;45260.44;5012577;28;20463;-69
2022/01/12 11:54:47;;;;;;;21.93;5.20;;;;;;;-143.84;49.51;45250.91;5012164;28;20455;-69
2022/01/12 11:57:18;;;;;;;7.83;5.90;;;;;;;-143.84;49.86;45254.72;5011902;28;20592;-69
2022/01/12 11:59:54;;;;;;;9.63;5.57;;;;;;;-143.84;50.22;45285.19;5012291;28;20447;-69
2022/01/12 12:02:33;;;;;;;10.50;6.03;;;;;;;-143.84;49.86;45283.28;5011665;28;20446;-69
2022/01/12 12:05:07;;;;;;;10.20;4.67;;;;;;;-143.84;49.48;45271.88;5011479;28;20518;-69
2022/01/12 12:07:44;;;;;;;5.93;5.10;;;;;;;-143.84;50.73;45277.56;5012102;28;20453;-69
2022/01/12 12:10:14;;;;;;;9.03;5.73;;;;;;;-143.84;51.42;45258.53;5011564;28;20456;-69
2022/01/12 12:12:41;;;;;;;10.43;5.70;;;;;;;-143.84;52.64;45258.53;5011172;28;20448;-69
2022/01/12 12:15:11;;;;;;;9.93;5.50;;;;;;;-143.84;52.95;45264.25;5011023;28;20507;-69
2022/01/12 12:17:42;;;;;;;9.67;6.03;;;;;;;-143.84;54.23;45249.00;5011523;28;20549;-69
2022/01/12 12:20:15;;;;;;;5.23;4.70;;;;;;;-143.84;54.69;45258.53;5011441;28;20450;-69
2022/01/12 12:22:44;;;;;;;12.20;5.90;;;;;;;-143.84;54.26;45277.56;5012003;28;20452;-69
2022/01/12 12:25:13;;;;;;;7.20;5.40;;;;;;;-143.84;55.28;45285.19;5011595;28;20450;-69
2022/01/12 12:27:43;;;;;;;9.30;6.40;;;;;;;-143.84;55.00;45277.56;4994288;28;20509;-69
2022/01/12 12:30:13;;;;;;;10.10;5.43;;;;;;;-143.84;54.81;45258.53;5011684;28;20451;-68
2022/01/12 12:32:42;;;;;;;6.53;4.38;;;;;;;-143.84;55.81;45283.28;5011715;28;20502;-68
2022/01/12 12:35:13;;;;;;;9.93;5.10;;;;;;;-143.84;57.17;45268.06;5011565;28;20589;-68
2022/01/12 12:37:43;;;;;;;7.20;4.65;;;;;;;-143.84;57.07;45279.47;5011554;28;20483;-68
2022/01/12 12:40:17;;;;;;;6.38;4.95;;;;;;;-143.84;56.97;45279.47;5011558;28;20230;-68
2022/01/12 12:42:45;;;;;;;6.47;5.00;;;;;;;-143.84;58.21;45285.19;5011466;28;20204;-68
2022/01/12 12:45:12;;;;;;;5.10;4.37;;;;;;;-143.84;59.00;45269.97;5011365;28;20440;-68
2022/01/12 12:47:40;;;;;;;12.80;5.57;;;;;;;-143.84;59.44;45271.88;5011499;28;20458;-68
2022/01/12 12:50:12;;;;;;;6.82;4.75;;;;;;;-143.84;59.96;45273.78;5011460;28;20296;-69
2022/01/12 12:52:41;;;;;;;10.73;5.00;;;;;;;-143.84;60.01;45289.00;5011513;28;20255;-69
2022/01/12 12:55:13;;;;;;;6.88;4.75;;;;;;;-143.84;60.52;45296.63;5011387;28;20205;-69
2022/01/12 12:57:49;;;;;;;5.00;4.50;;;;;;;-143.84;61.02;45296.63;5011030;28;20796;-68
2022/01/12 13:00:17;;;;;;;6.20;3.70;;;;;;;-143.84;61.01;45296.63;5010918;28;20204;-69
2022/01/12 13:02:46;;;;;;;7.60;4.55;;;;;;;-143.84;60.56;45269.97;5011032;28;20207;-69